createdAt,value
2022-11-25T00:01:29.920Z,20.80
2022-11-25T00:03:37.850Z,18.88
2022-11-25T00:05:44.694Z,19.75
2022-11-25T00:07:51.823Z,20.20
2022-11-25T00:09:58.598Z,20.20
2022-11-25T00:12:07.161Z,18.75
2022-11-25T00:14:17.825Z,21.05
2022-11-25T00:16:27.342Z,20.63
2022-11-25T00:18:35.106Z,19.85
2022-11-25T00:20:41.981Z,19.05
2022-11-25T00:22:48.960Z,18.58
2022-11-25T00:24:55.780Z,17.17
2022-11-25T00:27:05.933Z,17.40
2022-11-25T00:29:16.854Z,17.83
2022-11-25T00:31:25.566Z,17.25
2022-11-25T00:33:32.392Z,18.67
2022-11-25T00:35:39.419Z,22.00
2022-11-25T00:37:46.143Z,19.80
2022-11-25T00:39:54.294Z,20.73
2022-11-25T00:42:17.823Z,20.90
2022-11-25T00:44:38.277Z,23.92
2022-11-25T00:46:46.397Z,22.27
2022-11-25T00:48:53.432Z,21.17
2022-11-25T00:51:00.089Z,20.15
2022-11-25T00:53:07.235Z,20.00
2022-11-25T00:55:14.007Z,21.02
2022-11-25T00:57:22.160Z,20.73
2022-11-25T00:59:31.542Z,19.73
2022-11-25T01:01:39.595Z,17.67
2022-11-25T01:03:46.264Z,17.75
2022-11-25T01:05:53.447Z,18.60
2022-11-25T01:08:00.476Z,21.00
2022-11-25T01:10:07.914Z,21.13
2022-11-25T01:12:14.740Z,22.75
2022-11-25T01:14:21.916Z,22.45
2022-11-25T01:16:32.959Z,19.85
2022-11-25T01:18:40.123Z,22.65
2022-11-25T01:20:47.404Z,23.15
2022-11-25T01:22:56.027Z,21.98
2022-11-25T01:25:03.148Z,21.40
2022-11-25T01:27:09.819Z,21.63
2022-11-25T01:29:18.904Z,21.73
2022-11-25T01:31:27.379Z,21.88
2022-11-25T01:33:36.791Z,22.95
2022-11-25T01:35:43.460Z,21.27
2022-11-25T01:37:50.641Z,19.20
2022-11-25T01:39:57.465Z,22.08
2022-11-25T01:42:04.905Z,19.55
2022-11-25T01:44:15.214Z,19.98
2022-11-25T01:46:28.432Z,18.10
2022-11-25T01:48:42.371Z,18.55
2022-11-25T01:50:51.552Z,18.70
2022-11-25T01:52:59.653Z,16.85
2022-11-25T01:55:12.674Z,17.40
2022-11-25T01:57:24.666Z,15.25
2022-11-25T01:59:35.944Z,15.57
2022-11-25T02:01:45.905Z,13.00
2022-11-25T02:03:57.835Z,14.30
2022-11-25T02:06:10.704Z,14.13
2022-11-25T02:08:19.058Z,15.98
2022-11-25T02:10:28.596Z,12.00
2022-11-25T02:12:37.317Z,14.00
2022-11-25T02:14:44.751Z,12.60
2022-11-25T02:16:51.761Z,13.27
2022-11-25T02:19:01.006Z,13.07
2022-11-25T02:21:08.239Z,15.20
2022-11-25T02:23:26.582Z,11.32
2022-11-25T02:25:38.323Z,12.02
2022-11-25T02:27:52.879Z,11.02
2022-11-25T02:30:00.578Z,11.65
2022-11-25T02:32:08.196Z,10.80
2022-11-25T02:34:14.881Z,9.93
2022-11-25T02:36:25.698Z,10.10
2022-11-25T02:38:39.231Z,9.93
2022-11-25T02:40:54.553Z,11.93
2022-11-25T02:43:03.833Z,11.73
2022-11-25T02:45:15.981Z,11.27
2022-11-25T02:47:22.701Z,10.68
2022-11-25T02:49:30.293Z,10.45
2022-11-25T02:51:37.013Z,10.25
2022-11-25T02:53:44.861Z,8.90
2022-11-25T02:55:53.682Z,10.18
2022-11-25T02:58:02.040Z,9.23
2022-11-25T03:00:10.195Z,9.05
2022-11-25T03:02:19.520Z,8.70
2022-11-25T03:04:26.606Z,8.25
2022-11-25T03:06:33.687Z,7.32
2022-11-25T03:08:41.021Z,8.88
2022-11-25T03:10:52.659Z,7.90
2022-11-25T03:12:59.891Z,7.78
2022-11-25T03:15:07.481Z,9.32
2022-11-25T03:17:14.818Z,8.27
2022-11-25T03:19:21.640Z,7.78
2022-11-25T03:21:31.844Z,8.23
2022-11-25T03:23:38.870Z,7.72
2022-11-25T03:25:46.000Z,9.20
2022-11-25T03:27:54.513Z,8.02
2022-11-25T03:30:01.489Z,9.27
2022-11-25T03:32:10.017Z,9.07
2022-11-25T03:34:17.951Z,10.13
2022-11-25T03:36:24.826Z,7.65
2022-11-25T03:38:32.520Z,6.95
2022-11-25T03:40:39.241Z,7.57
2022-11-25T03:42:48.726Z,6.20
2022-11-25T03:44:58.112Z,6.35
2022-11-25T03:47:05.598Z,5.85
2022-11-25T03:49:12.628Z,4.82
2022-11-25T03:51:19.705Z,6.20
2022-11-25T03:53:26.615Z,5.13
2022-11-25T03:55:34.019Z,6.22
2022-11-25T03:57:40.791Z,6.95
2022-11-25T03:59:47.971Z,4.88
2022-11-25T04:01:56.605Z,4.38
2022-11-25T04:04:03.820Z,6.07
2022-11-25T04:06:10.900Z,6.13
2022-11-25T04:08:19.566Z,5.40
2022-11-25T04:10:26.443Z,6.75
2022-11-25T04:12:48.680Z,4.85
2022-11-25T04:15:02.307Z,5.05
2022-11-25T04:17:12.018Z,5.30
2022-11-25T04:19:19.025Z,7.28
2022-11-25T04:21:26.104Z,4.93
2022-11-25T04:23:32.774Z,5.72
2022-11-25T04:25:43.541Z,6.68
2022-11-25T04:28:01.681Z,6.45
2022-11-25T04:30:13.365Z,5.47
2022-11-25T04:32:23.517Z,5.45
2022-11-25T04:34:30.904Z,5.53
2022-11-25T04:36:38.804Z,6.65
2022-11-25T04:38:46.086Z,6.38
2022-11-25T04:40:53.011Z,6.75
2022-11-25T04:43:07.474Z,6.30
2022-11-25T04:45:23.365Z,6.78
2022-11-25T04:47:34.934Z,5.07
2022-11-25T04:49:42.627Z,6.43
2022-11-25T04:51:49.810Z,6.03
2022-11-25T04:53:56.634Z,4.10
2022-11-25T04:56:04.685Z,4.45
2022-11-25T04:58:43.457Z,5.85
2022-11-25T05:00:49.308Z,5.22
2022-11-25T05:02:58.027Z,5.88
2022-11-25T05:05:05.719Z,4.25
2022-11-25T05:07:12.641Z,4.57
2022-11-25T05:09:20.542Z,4.90
2022-11-25T05:11:36.378Z,4.97
2022-11-25T05:13:43.763Z,6.15
2022-11-25T05:15:50.485Z,5.20
2022-11-25T05:18:01.405Z,4.13
2022-11-25T05:20:24.254Z,4.32
2022-11-25T05:22:33.739Z,5.63
2022-11-25T05:24:40.971Z,4.63
2022-11-25T05:26:48.362Z,4.93
2022-11-25T05:28:55.129Z,4.88
2022-11-25T05:31:02.672Z,3.97
2022-11-25T05:33:11.694Z,5.18
2022-11-25T05:35:20.001Z,4.47
2022-11-25T05:37:27.082Z,4.55
2022-11-25T05:39:40.971Z,4.75
2022-11-25T05:42:08.682Z,5.53
2022-11-25T05:44:22.710Z,7.32
2022-11-25T05:46:32.953Z,4.68
2022-11-25T05:48:41.493Z,5.05
2022-11-25T05:50:48.673Z,4.30
2022-11-25T05:53:02.105Z,4.63
2022-11-25T05:55:10.667Z,5.75
2022-11-25T05:57:17.491Z,4.32
2022-11-25T05:59:34.299Z,5.45
2022-11-25T06:01:57.960Z,5.78
2022-11-25T06:04:08.832Z,5.35
2022-11-25T06:06:15.707Z,5.85
2022-11-25T06:08:22.990Z,5.75
2022-11-25T06:10:29.816Z,8.75
2022-11-25T06:12:36.944Z,6.03
2022-11-25T06:14:43.770Z,7.03
2022-11-25T06:16:51.768Z,5.72
2022-11-25T06:19:08.114Z,4.68
2022-11-25T06:21:17.293Z,5.13
2022-11-25T06:23:24.219Z,4.88
2022-11-25T06:25:31.607Z,5.88
2022-11-25T06:28:04.412Z,4.45
2022-11-25T06:30:05.835Z,5.15
2022-11-25T06:32:12.765Z,6.15
2022-11-25T06:34:24.498Z,5.10
2022-11-25T06:36:31.218Z,5.97
2022-11-25T06:38:38.605Z,4.40
2022-11-25T06:40:45.480Z,4.28
2022-11-25T06:42:52.509Z,6.65
2022-11-25T06:44:59.384Z,5.53
2022-11-25T06:47:06.512Z,4.88
2022-11-25T06:49:13.591Z,3.92
2022-11-25T06:51:22.359Z,3.75
2022-11-25T06:53:29.697Z,6.28
2022-11-25T06:55:36.621Z,5.50
2022-11-25T06:57:43.547Z,5.88
2022-11-25T06:59:50.934Z,4.78
2022-11-25T07:01:57.784Z,5.15
2022-11-25T07:04:06.118Z,5.38
2022-11-25T07:06:14.328Z,4.70
2022-11-25T07:08:28.283Z,4.47
2022-11-25T07:10:38.414Z,5.03
2022-11-25T07:12:48.208Z,13.55
2022-11-25T07:14:55.182Z,6.28
2022-11-25T07:17:02.952Z,6.43
2022-11-25T07:19:13.334Z,5.88
2022-11-25T07:21:21.898Z,3.65
2022-11-25T07:23:31.026Z,3.38
2022-11-25T07:25:38.207Z,4.57
2022-11-25T07:27:44.877Z,3.67
2022-11-25T07:30:10.710Z,4.13
2022-11-25T07:32:19.463Z,3.70
2022-11-25T07:34:26.647Z,3.08
2022-11-25T07:36:34.033Z,3.42
2022-11-25T07:38:46.483Z,5.18
2022-11-25T07:40:53.771Z,3.13
2022-11-25T07:43:00.748Z,3.60
2022-11-25T07:45:08.340Z,4.20
2022-11-25T07:47:26.477Z,4.20
2022-11-25T07:49:33.147Z,3.60
2022-11-25T07:51:41.966Z,3.20
2022-11-25T07:53:51.658Z,3.78
2022-11-25T07:55:58.686Z,3.83
2022-11-25T07:58:06.740Z,3.17
2022-11-25T08:00:15.456Z,4.03
2022-11-25T08:02:22.247Z,3.72
2022-11-25T08:04:29.359Z,4.47
2022-11-25T08:06:36.180Z,4.18
2022-11-25T08:08:44.336Z,4.22
2022-11-25T08:10:52.902Z,5.70
2022-11-25T08:13:00.029Z,4.47
2022-11-25T08:15:07.110Z,4.07
2022-11-25T08:17:14.240Z,5.80
2022-11-25T08:19:23.121Z,4.45
2022-11-25T08:21:33.057Z,4.45
2022-11-25T08:23:41.010Z,3.55
2022-11-25T08:25:50.611Z,4.03
2022-11-25T08:27:59.312Z,4.35
2022-11-25T08:30:06.599Z,4.47
2022-11-25T08:32:13.318Z,3.63
2022-11-25T08:34:22.597Z,3.58
2022-11-25T08:36:34.286Z,3.40
2022-11-25T08:38:41.621Z,4.40
2022-11-25T08:40:49.058Z,5.15
2022-11-25T08:42:57.932Z,3.58
2022-11-25T08:45:04.803Z,4.32
2022-11-25T08:47:12.549Z,3.88
2022-11-25T08:49:20.805Z,5.63
2022-11-25T08:51:32.596Z,12.13
2022-11-25T08:53:40.442Z,4.88
2022-11-25T08:55:47.635Z,5.57
2022-11-25T08:57:54.600Z,5.78
2022-11-25T09:00:03.375Z,4.88
2022-11-25T09:02:10.968Z,3.63
2022-11-25T09:04:17.988Z,3.40
2022-11-25T09:06:25.890Z,4.43
2022-11-25T09:08:33.479Z,6.75
2022-11-25T09:10:40.864Z,4.43
2022-11-25T09:12:49.223Z,3.00
2022-11-25T09:14:56.149Z,3.55
2022-11-25T09:17:05.074Z,4.57
2022-11-25T09:19:11.844Z,3.97
2022-11-25T09:21:21.484Z,5.28
2022-11-25T09:23:28.923Z,5.38
2022-11-25T09:25:36.217Z,5.22
2022-11-25T09:27:43.079Z,4.03
2022-11-25T09:29:50.366Z,4.85
2022-11-25T09:31:57.314Z,5.13
2022-11-25T09:34:06.108Z,5.07
2022-11-25T09:36:15.184Z,4.80
2022-11-25T09:38:22.519Z,6.90
2022-11-25T09:40:38.098Z,5.43
2022-11-25T09:43:11.139Z,4.05
2022-11-25T09:45:40.282Z,5.50
2022-11-25T09:47:58.420Z,5.40
2022-11-25T09:50:18.660Z,33.35
2022-11-25T09:52:33.315Z,17.77
2022-11-25T09:54:43.109Z,6.68
2022-11-25T09:56:53.876Z,5.82
2022-11-25T09:59:06.482Z,6.03
2022-11-25T10:01:20.524Z,5.45
2022-11-25T10:03:43.134Z,4.82
2022-11-25T10:05:57.268Z,4.88
2022-11-25T10:08:09.820Z,5.13
2022-11-25T10:10:25.202Z,5.88
2022-11-25T10:12:37.187Z,8.07
2022-11-25T10:14:49.439Z,6.35
2022-11-25T10:17:04.549Z,5.13
2022-11-25T10:19:19.980Z,5.97
2022-11-25T10:21:29.466Z,6.30
2022-11-25T10:23:38.031Z,6.00
2022-11-25T10:25:49.413Z,6.78
2022-11-25T10:28:02.176Z,5.88
2022-11-25T10:30:21.284Z,9.18
2022-11-25T10:32:31.077Z,8.25
2022-11-25T10:34:43.081Z,7.38
2022-11-25T10:39:03.680Z,9.07
2022-11-25T10:41:11.785Z,11.93
2022-11-25T10:43:19.395Z,10.88
2022-11-25T10:45:35.260Z,10.80
2022-11-25T10:48:01.234Z,8.48
2022-11-25T10:50:23.211Z,10.98
2022-11-25T10:52:36.281Z,9.13
2022-11-25T10:54:43.502Z,9.52
2022-11-25T10:56:54.894Z,10.10
2022-11-25T10:59:15.799Z,12.27
2022-11-25T11:01:26.529Z,10.82
2022-11-25T11:03:33.641Z,10.43
2022-11-25T11:05:48.454Z,12.48
2022-11-25T11:08:18.981Z,9.93
2022-11-25T11:10:27.751Z,9.15
2022-11-25T11:12:34.523Z,9.20
2022-11-25T11:14:41.346Z,7.65
2022-11-25T11:16:55.899Z,9.13
2022-11-25T11:19:02.979Z,7.75
2022-11-25T11:21:23.985Z,9.15
2022-11-25T11:23:32.804Z,10.73
2022-11-25T11:25:41.728Z,7.32
2022-11-25T11:27:48.551Z,7.95
2022-11-25T11:30:17.286Z,8.85
2022-11-25T11:32:27.541Z,10.30
2022-11-25T11:34:53.615Z,9.80
2022-11-25T11:37:17.900Z,10.25
2022-11-25T11:39:49.246Z,9.70
2022-11-25T11:42:04.210Z,8.65
2022-11-25T11:44:18.714Z,7.40
2022-11-25T11:46:36.589Z,10.85
2022-11-25T11:48:53.124Z,15.05
2022-11-25T11:51:10.159Z,10.52
2022-11-25T11:53:25.302Z,13.27
2022-11-25T11:56:33.003Z,14.52
2022-11-25T11:58:41.952Z,11.35
2022-11-25T12:00:55.024Z,13.82
2022-11-25T12:03:09.062Z,11.40
2022-11-25T12:05:23.055Z,11.85
2022-11-25T12:07:37.153Z,9.52
2022-11-25T12:09:52.982Z,11.60
2022-11-25T12:12:07.285Z,9.55
2022-11-25T12:14:30.641Z,9.38
2022-11-25T12:16:43.138Z,12.15
2022-11-25T12:18:56.018Z,14.07
2022-11-25T12:21:06.576Z,13.75
2022-11-25T12:23:19.848Z,14.52
2022-11-25T12:25:31.535Z,13.02
2022-11-25T12:27:43.734Z,13.45
2022-11-25T12:29:55.064Z,14.57
2022-11-25T12:32:11.054Z,13.80
2022-11-25T12:34:24.265Z,15.73
2022-11-25T12:36:37.139Z,14.43
2022-11-25T12:38:53.947Z,14.00
2022-11-25T12:41:08.862Z,14.27
2022-11-25T12:43:33.824Z,12.55
2022-11-25T12:45:40.952Z,14.55
2022-11-25T12:47:48.478Z,12.05
2022-11-25T12:49:58.170Z,14.13
2022-11-25T12:52:23.527Z,13.98
2022-11-25T12:54:53.697Z,14.32
2022-11-25T12:57:24.483Z,13.23
2022-11-25T13:00:11.305Z,14.23
2022-11-25T13:02:45.416Z,12.05
2022-11-25T13:05:32.891Z,13.43
2022-11-25T13:07:44.216Z,13.02
2022-11-25T13:10:16.686Z,15.73
2022-11-25T13:12:35.194Z,21.45
2022-11-25T13:15:03.732Z,19.67
2022-11-25T13:17:15.458Z,17.42
2022-11-25T13:19:23.094Z,15.40
2022-11-25T13:21:30.740Z,16.25
2022-11-25T13:23:57.178Z,14.90
2022-11-25T13:26:48.898Z,15.93
2022-11-25T13:28:55.721Z,13.93
2022-11-25T13:31:23.108Z,16.67
2022-11-25T13:34:10.302Z,14.65
2022-11-25T13:36:22.084Z,17.33
2022-11-25T13:39:02.557Z,18.48
2022-11-25T13:41:26.471Z,15.80
2022-11-25T13:43:33.550Z,14.48
2022-11-25T13:45:45.706Z,18.38
2022-11-25T13:50:03.798Z,23.75
2022-11-25T13:52:33.203Z,21.55
2022-11-25T13:54:51.083Z,19.40
2022-11-25T13:57:20.027Z,15.93
2022-11-25T13:59:40.928Z,19.15
2022-11-25T14:01:57.483Z,16.02
2022-11-25T14:04:10.396Z,17.70
2022-11-25T14:06:31.507Z,16.15
2022-11-25T14:08:44.522Z,18.45
2022-11-25T14:11:03.073Z,19.33
2022-11-25T14:13:34.111Z,16.95
2022-11-25T14:16:07.373Z,15.90
2022-11-25T14:19:12.105Z,19.73
2022-11-25T14:21:10.000Z,15.38
2022-11-25T14:24:04.186Z,14.90
2022-11-25T14:26:34.024Z,17.90
2022-11-25T14:28:50.342Z,18.88
2022-11-25T14:31:01.879Z,16.25
2022-11-25T14:33:14.535Z,18.80
2022-11-25T14:35:25.303Z,14.23
2022-11-25T14:37:42.472Z,15.27
2022-11-25T14:39:57.329Z,16.60
2022-11-25T14:42:08.965Z,18.05
2022-11-25T14:44:26.643Z,16.83
2022-11-25T14:46:33.451Z,15.77
2022-11-25T14:48:41.160Z,18.98
2022-11-25T14:51:02.164Z,16.13
2022-11-25T14:53:15.581Z,17.48
2022-11-25T14:55:31.632Z,15.55
2022-11-25T14:57:42.477Z,16.63
2022-11-25T14:59:49.428Z,20.52
2022-11-25T15:01:58.137Z,18.33
2022-11-25T15:04:07.482Z,18.23
2022-11-25T15:06:17.525Z,17.60
2022-11-25T15:08:26.853Z,15.50
2022-11-25T15:10:41.444Z,16.50
2022-11-25T15:12:53.557Z,20.55
2022-11-25T15:15:01.149Z,16.85
2022-11-25T15:17:11.918Z,18.73
2022-11-25T15:19:21.811Z,15.85
2022-11-25T15:21:32.732Z,15.40
2022-11-25T15:23:43.445Z,15.35
2022-11-25T15:25:54.865Z,18.98
2022-11-25T15:28:01.955Z,18.17
2022-11-25T15:30:22.656Z,16.30
2022-11-25T15:32:32.240Z,22.33
2022-11-25T15:34:39.218Z,20.38
2022-11-25T15:36:52.668Z,22.30
2022-11-25T15:39:18.058Z,18.83
2022-11-25T15:41:36.347Z,16.48
2022-11-25T15:43:48.035Z,16.63
2022-11-25T15:48:02.195Z,19.08
2022-11-25T15:50:20.904Z,20.75
2022-11-25T15:52:28.847Z,18.67
2022-11-25T15:54:43.896Z,19.50
2022-11-25T15:56:53.154Z,21.55
2022-11-25T15:59:01.929Z,19.13
2022-11-25T16:01:10.356Z,19.23
2022-11-25T16:03:24.876Z,21.83
2022-11-25T16:05:37.741Z,21.27
2022-11-25T16:08:00.896Z,20.73
2022-11-25T16:10:21.631Z,20.48
2022-11-25T16:12:28.775Z,19.40
2022-11-25T16:14:39.644Z,21.90
2022-11-25T16:16:47.818Z,20.02
2022-11-25T16:19:20.837Z,17.60
2022-11-25T16:21:31.501Z,23.70
2022-11-25T16:23:40.062Z,20.92
2022-11-25T16:25:54.567Z,19.80
2022-11-25T16:28:01.909Z,19.02
2022-11-25T16:30:21.225Z,18.38
2022-11-25T16:32:29.633Z,19.58
2022-11-25T16:34:36.891Z,19.25
2022-11-25T16:36:43.737Z,20.45
2022-11-25T16:38:56.704Z,17.95
2022-11-25T16:41:14.331Z,19.48
2022-11-25T16:43:25.612Z,17.48
2022-11-25T16:45:32.759Z,22.23
2022-11-25T16:47:39.869Z,21.50
2022-11-25T16:49:47.514Z,20.52
2022-11-25T16:51:55.359Z,22.90
2022-11-25T16:54:02.180Z,22.77
2022-11-25T16:56:15.915Z,22.08
2022-11-25T16:58:25.087Z,21.75
2022-11-25T17:00:32.329Z,21.13
2022-11-25T17:02:39.791Z,20.58
2022-11-25T17:04:47.202Z,21.85
2022-11-25T17:07:24.383Z,18.90
2022-11-25T17:09:21.126Z,17.80
2022-11-25T17:11:32.299Z,17.70
2022-11-25T17:13:43.116Z,23.35
2022-11-25T17:15:50.847Z,26.52
2022-11-25T17:17:57.995Z,19.98
2022-11-25T17:20:04.662Z,19.38
2022-11-25T17:22:20.649Z,20.98
2022-11-25T17:24:28.342Z,19.35
2022-11-25T17:26:41.055Z,17.77
2022-11-25T17:28:54.225Z,17.95
2022-11-25T17:31:02.125Z,23.05
2022-11-25T17:33:14.375Z,17.80
2022-11-25T17:35:23.093Z,19.35
2022-11-25T17:37:32.016Z,16.85
2022-11-25T17:39:39.638Z,21.83
2022-11-25T17:41:50.731Z,16.67
2022-11-25T17:43:58.275Z,18.77
2022-11-25T17:46:05.177Z,16.48
2022-11-25T17:48:14.374Z,17.33
2022-11-25T17:50:24.167Z,16.55
2022-11-25T17:52:31.196Z,16.52
2022-11-25T17:54:38.384Z,20.05
2022-11-25T17:56:52.358Z,25.23
2022-11-25T17:59:03.595Z,17.25
2022-11-25T18:01:12.909Z,18.10
2022-11-25T18:03:20.826Z,23.95
2022-11-25T18:05:29.032Z,22.95
2022-11-25T18:07:36.146Z,23.88
2022-11-25T18:09:42.935Z,18.52
2022-11-25T18:11:53.853Z,18.35
2022-11-25T18:14:00.778Z,18.38
2022-11-25T18:16:08.617Z,19.90
2022-11-25T18:18:22.139Z,22.90
2022-11-25T18:20:31.079Z,25.20
2022-11-25T18:22:37.995Z,25.40
2022-11-25T18:24:45.277Z,18.45
2022-11-25T18:26:55.748Z,15.05
2022-11-25T18:29:04.054Z,16.92
2022-11-25T18:31:10.984Z,15.25
2022-11-25T18:33:19.441Z,13.77
2022-11-25T18:35:34.126Z,12.32
2022-11-25T18:37:43.022Z,9.52
2022-11-25T18:39:49.849Z,10.63
2022-11-25T18:42:00.971Z,8.98
2022-11-25T18:44:10.662Z,9.00
2022-11-25T18:46:18.389Z,8.63
2022-11-25T18:48:26.404Z,7.53
2022-11-25T18:50:33.484Z,10.27
2022-11-25T18:52:40.311Z,9.00
2022-11-25T18:54:47.750Z,9.50
2022-11-25T18:56:55.285Z,8.40
2022-11-25T18:59:04.414Z,7.80
2022-11-25T19:01:18.144Z,9.73
2022-11-25T19:03:26.919Z,7.85
2022-11-25T19:05:36.401Z,7.13
2022-11-25T19:07:43.317Z,5.28
2022-11-25T19:09:50.407Z,6.95
2022-11-25T19:11:58.202Z,9.25
2022-11-25T19:14:11.580Z,6.97
2022-11-25T19:16:22.376Z,7.43
2022-11-25T19:18:30.498Z,4.82
2022-11-25T19:20:37.222Z,5.00
2022-11-25T19:22:44.351Z,5.38
2022-11-25T19:24:51.173Z,5.65
2022-11-25T19:27:00.301Z,5.07
2022-11-25T19:29:10.708Z,2.60
2022-11-25T19:31:17.848Z,2.70
2022-11-25T19:33:28.605Z,3.53
2022-11-25T19:35:39.166Z,1.90
2022-11-25T19:37:46.300Z,1.60
2022-11-25T19:39:54.604Z,1.65
2022-11-25T19:42:01.429Z,1.88
2022-11-25T19:44:10.403Z,5.05
2022-11-25T19:46:33.072Z,1.73
2022-11-25T19:48:44.067Z,3.20
2022-11-25T19:50:53.040Z,1.02
2022-11-25T19:53:00.069Z,2.80
2022-11-25T19:55:16.209Z,2.15
2022-11-25T19:57:25.440Z,4.25
2022-11-25T19:59:34.362Z,1.80
2022-11-25T20:01:45.590Z,2.33
2022-11-25T20:03:55.791Z,1.10
2022-11-25T20:06:03.127Z,1.92
2022-11-25T20:08:13.481Z,3.30
2022-11-25T20:10:23.222Z,2.10
2022-11-25T20:12:31.531Z,1.40
2022-11-25T20:14:40.232Z,1.23
2022-11-25T20:16:47.154Z,2.45
2022-11-25T20:18:55.985Z,2.30
2022-11-25T20:21:05.532Z,2.97
2022-11-25T20:23:18.294Z,2.85
2022-11-25T20:25:25.733Z,3.38
2022-11-25T20:27:32.664Z,4.00
2022-11-25T20:29:41.681Z,5.15
2022-11-25T20:31:48.871Z,3.60
2022-11-25T20:33:56.210Z,4.03
2022-11-25T20:36:06.300Z,3.03
2022-11-25T20:38:19.780Z,2.13
2022-11-25T20:40:31.003Z,3.58
2022-11-25T20:42:38.237Z,2.38
2022-11-25T20:44:47.211Z,3.42
2022-11-25T20:46:54.342Z,3.67
2022-11-25T20:49:02.862Z,1.77
2022-11-25T20:51:15.871Z,3.30
2022-11-25T20:53:24.317Z,2.85
2022-11-25T20:55:31.413Z,3.03
2022-11-25T20:57:38.442Z,5.30
2022-11-25T20:59:47.466Z,3.20
2022-11-25T21:01:55.645Z,4.22
2022-11-25T21:04:02.805Z,3.63
2022-11-25T21:06:21.249Z,4.93
2022-11-25T21:08:31.860Z,4.85
2022-11-25T21:10:38.632Z,3.78
2022-11-25T21:12:45.915Z,5.38
2022-11-25T21:14:54.429Z,2.78
2022-11-25T21:17:01.559Z,3.50
2022-11-25T21:19:08.485Z,3.80
2022-11-25T21:21:19.764Z,2.67
2022-11-25T21:23:28.225Z,3.83
2022-11-25T21:25:36.328Z,2.38
2022-11-25T21:27:43.304Z,3.13
2022-11-25T21:29:50.742Z,2.58
2022-11-25T21:31:59.389Z,4.47
2022-11-25T21:34:12.272Z,4.03
2022-11-25T21:36:22.888Z,2.38
2022-11-25T21:38:30.783Z,2.10
2022-11-25T21:40:42.675Z,5.18
2022-11-25T21:42:49.651Z,2.60
2022-11-25T21:44:56.682Z,2.28
2022-11-25T21:47:05.860Z,2.72
2022-11-25T21:49:14.730Z,3.17
2022-11-25T21:51:25.089Z,3.33
2022-11-25T21:53:36.018Z,2.22
2022-11-25T21:55:44.574Z,1.95
2022-11-25T21:57:51.291Z,2.67
2022-11-25T21:59:58.778Z,1.67
2022-11-25T22:02:19.685Z,2.22
2022-11-25T22:04:27.262Z,1.53
2022-11-25T22:06:34.509Z,1.67
2022-11-25T22:08:41.640Z,3.45
2022-11-25T22:10:51.328Z,2.05
2022-11-25T22:12:58.510Z,2.40
2022-11-25T22:15:06.356Z,2.78
2022-11-25T22:17:21.067Z,3.10
2022-11-25T22:19:30.499Z,2.13
2022-11-25T22:21:37.683Z,3.53
2022-11-25T22:23:45.118Z,1.27
2022-11-25T22:25:53.171Z,2.08
2022-11-25T22:28:00.148Z,3.08
2022-11-25T22:30:08.096Z,1.90
2022-11-25T22:32:17.687Z,2.35
2022-11-25T22:34:26.915Z,1.52
2022-11-25T22:36:36.282Z,2.75
2022-11-25T22:38:43.714Z,2.00
2022-11-25T22:40:52.811Z,2.92
2022-11-25T22:43:01.887Z,3.80
2022-11-25T22:45:11.273Z,2.50
2022-11-25T22:47:26.234Z,1.55
2022-11-25T22:49:37.718Z,2.03
2022-11-25T22:51:45.258Z,2.92
2022-11-25T22:53:51.979Z,2.28
2022-11-25T22:55:59.568Z,3.20
2022-11-25T22:58:06.341Z,2.33
2022-11-25T23:00:19.052Z,3.85
2022-11-25T23:02:35.700Z,1.98
2022-11-25T23:04:42.724Z,3.55
2022-11-25T23:06:50.375Z,3.35
2022-11-25T23:08:57.558Z,2.22
2022-11-25T23:11:04.539Z,2.50
2022-11-25T23:13:12.383Z,4.55
2022-11-25T23:15:20.281Z,3.25
2022-11-25T23:17:29.510Z,3.83
2022-11-25T23:19:36.384Z,4.43
2022-11-25T23:21:43.514Z,3.25
2022-11-25T23:23:50.645Z,6.78
2022-11-25T23:25:58.185Z,4.40
2022-11-25T23:28:04.906Z,3.72
2022-11-25T23:30:14.596Z,4.55
2022-11-25T23:32:22.859Z,4.95
2022-11-25T23:34:31.708Z,5.15
2022-11-25T23:36:44.938Z,5.32
2022-11-25T23:38:55.303Z,7.97
2022-11-25T23:41:02.082Z,3.47
2022-11-25T23:43:15.247Z,7.15
2022-11-25T23:45:25.070Z,7.25
2022-11-25T23:47:32.530Z,4.93
2022-11-25T23:49:45.191Z,4.68
2022-11-25T23:51:52.781Z,3.47
2022-11-25T23:54:00.423Z,4.10
2022-11-25T23:56:07.861Z,7.93
2022-11-25T23:58:18.576Z,3.83
